Time;durP1;ratioP1;P1;durP2;ratioP2;P2;SDS_P1;SDS_P2;PMS_P1;PMS_P2;Temp;Humidity;BMP_temperature;BMP_pressure;BME280_temperature;BME280_humidity;BME280_pressure;Samples;Min_cycle;Max_cycle;Signal;HPM_P1;HPM_P2
2020/12/20 00:00:31;;;;;;;73.65;25.00;;;;;;;16.64;57.80;155494.42;1748270;82;21189;-64
2020/12/20 00:03:04;;;;;;;64.53;25.23;;;;;;;16.68;57.69;155504.92;1747976;82;21313;-64
2020/12/20 00:05:37;;;;;;;64.95;24.85;;;;;;;16.61;57.76;155487.78;1747241;82;21186;-65
2020/12/20 00:08:10;;;;;;;65.20;23.92;;;;;;;16.57;57.73;155477.28;1747782;82;21334;-64
2020/12/20 00:10:42;;;;;;;58.42;22.85;;;;;;;16.55;57.89;155470.72;1747958;82;21417;-64
2020/12/20 00:13:17;;;;;;;70.28;23.05;;;;;;;16.85;57.47;155549.77;1748899;82;21323;-64
2020/12/20 00:15:49;;;;;;;68.28;24.02;;;;;;;16.93;57.31;155570.84;1748541;82;21777;-64
2020/12/20 00:18:22;;;;;;;71.60;24.47;;;;;;;16.95;57.22;155576.13;1748879;82;21782;-64
2020/12/20 00:20:55;;;;;;;70.75;25.15;;;;;;;16.70;57.54;155511.56;1747863;82;21792;-65
2020/12/20 00:23:27;;;;;;;68.47;25.27;;;;;;;16.67;57.75;155502.28;1747823;82;21337;-65
2020/12/20 00:26:00;;;;;;;74.17;25.82;;;;;;;16.68;57.67;155504.92;1747763;82;21792;-65
2020/12/20 00:28:33;;;;;;;71.22;25.23;;;;;;;16.67;57.53;155502.28;1748156;82;21205;-65
2020/12/20 00:31:06;;;;;;;74.10;26.90;;;;;;;16.96;57.03;155578.77;1748241;82;21648;-65
2020/12/20 00:33:38;;;;;;;86.50;31.23;;;;;;;16.93;56.90;155572.19;1748520;82;21354;-65
2020/12/20 00:36:11;;;;;;;76.17;28.92;;;;;;;16.87;56.93;155556.34;1747805;82;21357;-65
2020/12/20 00:38:43;;;;;;;88.12;30.25;;;;;;;17.03;56.49;155598.55;1747809;82;21321;-65
2020/12/20 00:41:16;;;;;;;88.22;29.95;;;;;;;16.86;56.84;155553.70;1748098;82;21184;-65
2020/12/20 00:43:49;;;;;;;88.78;30.15;;;;;;;16.81;57.02;155540.55;1719275;82;21255;-65
2020/12/20 00:46:22;;;;;;;91.82;33.05;;;;;;;16.85;57.02;155549.77;1748008;82;21826;-65
2020/12/20 00:48:55;;;;;;;90.77;30.23;;;;;;;16.46;57.70;155446.95;1748098;82;21312;-65
2020/12/20 00:51:27;;;;;;;85.57;30.70;;;;;;;16.82;57.24;155543.19;1718086;83;21234;-65
2020/12/20 00:54:01;;;;;;;81.60;27.90;;;;;;;16.74;57.42;155520.77;1688596;83;21277;-65
2020/12/20 00:56:33;;;;;;;79.80;27.40;;;;;;;16.83;57.27;155544.48;1718132;83;21376;-65
2020/12/20 00:59:06;;;;;;;67.50;25.48;;;;;;;16.85;57.29;155549.77;1740878;82;21252;-65
2020/12/20 01:01:40;;;;;;;76.40;25.95;;;;;;;16.88;57.31;155557.69;1748829;82;21200;-65
2020/12/20 01:04:13;;;;;;;77.55;26.68;;;;;;;16.91;57.20;155565.56;1748501;80;21383;-65
2020/12/20 01:06:46;;;;;;;67.60;24.92;;;;;;;16.83;57.27;155544.48;1747972;82;21819;-65
2020/12/20 01:09:23;;;;;;;74.40;25.10;;;;;;;16.87;57.35;155556.34;1748026;82;21339;-65
2020/12/20 01:11:59;;;;;;;67.32;22.52;;;;;;;17.62;56.03;155755.50;1747779;80;21323;-65
2020/12/20 01:14:33;;;;;;;70.65;21.80;;;;;;;17.80;55.58;155801.67;1743380;80;21372;-65
2020/12/20 01:17:07;;;;;;;49.88;18.77;;;;;;;17.84;55.43;155813.55;1720740;82;21183;-66
2020/12/20 01:19:42;;;;;;;54.70;19.40;;;;;;;17.78;55.50;155797.73;1743920;81;21287;-76
2020/12/20 01:22:16;;;;;;;51.18;16.73;;;;;;;17.78;55.43;155797.73;1713688;83;21364;-67
2020/12/20 01:24:50;;;;;;;42.50;15.38;;;;;;;18.02;55.04;155861.08;1745883;82;21461;-68
2020/12/20 01:27:23;;;;;;;46.50;17.70;;;;;;;17.92;55.03;155834.69;1750144;82;21168;-65
2020/12/20 01:29:56;;;;;;;43.40;17.25;;;;;;;17.62;55.30;155754.20;1747828;82;21784;-65
2020/12/20 01:32:29;;;;;;;40.67;14.85;;;;;;;17.18;56.29;155639.41;1747690;82;21187;-65
2020/12/20 01:35:04;;;;;;;46.33;15.58;;;;;;;17.14;56.50;155627.55;1747196;81;21344;-66
2020/12/20 01:37:37;;;;;;;40.92;15.28;;;;;;;17.14;56.46;155626.20;1747675;82;21400;-68
2020/12/20 01:40:10;;;;;;;32.60;12.33;;;;;;;17.42;56.40;155702.77;1749026;81;21163;-65
2020/12/20 01:42:42;;;;;;;36.30;13.30;;;;;;;17.70;55.27;155776.66;1769329;81;21190;-65
2020/12/20 01:45:19;;;;;;;34.60;12.88;;;;;;;17.42;55.94;155702.77;1744390;82;21171;-65
2020/12/20 01:47:52;;;;;;;32.70;12.23;;;;;;;17.43;56.00;155704.06;1742300;82;21693;-65
2020/12/20 01:50:24;;;;;;;32.83;12.73;;;;;;;17.42;55.99;155702.77;1745678;81;21739;-66
2020/12/20 01:52:59;;;;;;;34.90;12.78;;;;;;;17.38;56.12;155690.91;1747402;81;21360;-69
2020/12/20 01:55:33;;;;;;;32.45;12.03;;;;;;;17.41;55.95;155698.83;1785100;80;21202;-65
2020/12/20 01:58:08;;;;;;;28.52;10.95;;;;;;;17.30;56.01;155669.81;1787896;79;21616;-65
2020/12/20 02:00:42;;;;;;;31.35;10.53;;;;;;;17.18;56.26;155638.12;1763804;81;21748;-66
2020/12/20 02:03:26;;;;;;;28.42;10.20;;;;;;;17.13;56.20;155624.91;1762112;81;21166;-65
2020/12/20 02:06:00;;;;;;;27.07;10.55;;;;;;;17.17;56.19;155635.47;1775507;80;21167;-65
2020/12/20 02:08:33;;;;;;;28.75;10.53;;;;;;;17.12;56.25;155622.27;1750771;80;21871;-66
2020/12/20 02:11:13;;;;;;;30.68;10.58;;;;;;;17.05;56.35;155602.48;1791423;80;21210;-65
2020/12/20 02:13:53;;;;;;;22.77;9.18;;;;;;;17.08;56.33;155610.41;1762929;80;21159;-64
2020/12/20 02:16:27;;;;;;;22.67;8.80;;;;;;;17.03;56.42;155597.20;1790201;79;21789;-65
2020/12/20 02:19:00;;;;;;;23.15;8.88;;;;;;;17.03;56.49;155598.55;1775918;80;21329;-68
2020/12/20 02:21:33;;;;;;;35.78;11.93;;;;;;;17.09;56.55;155613.05;1717536;82;21163;-67
2020/12/20 02:24:07;;;;;;;34.15;9.88;;;;;;;17.06;56.48;155606.47;1727061;82;21194;-67
2020/12/20 02:26:42;;;;;;;26.85;9.80;;;;;;;17.18;56.51;155639.41;1713451;82;21269;-65
2020/12/20 02:29:17;;;;;;;29.95;9.60;;;;;;;17.14;56.25;155627.55;1711988;82;21190;-69
2020/12/20 02:31:50;;;;;;;30.75;9.95;;;;;;;17.10;56.39;155616.98;1781212;80;21433;-65
2020/12/20 02:34:23;;;;;;;34.15;10.28;;;;;;;17.11;56.41;155619.63;1785696;80;21344;-65
2020/12/20 02:36:56;;;;;;;31.70;10.13;;;;;;;16.94;56.54;155573.48;1785045;80;21194;-65
2020/12/20 02:39:33;;;;;;;31.50;9.70;;;;;;;16.91;56.62;155565.56;1784445;80;21145;-66
2020/12/20 02:42:08;;;;;;;27.10;8.50;;;;;;;16.91;56.72;155565.56;1769386;80;21309;-65
2020/12/20 02:44:42;;;;;;;29.82;10.18;;;;;;;16.93;56.67;155570.84;1768984;80;21721;-66
2020/12/20 02:47:15;;;;;;;25.17;9.18;;;;;;;16.68;57.08;155506.28;1773105;79;21297;-65
2020/12/20 02:49:49;;;;;;;29.45;9.75;;;;;;;16.66;57.23;155499.69;1773815;80;21301;-65
2020/12/20 02:52:23;;;;;;;29.05;9.30;;;;;;;16.68;57.23;155506.28;1771505;80;21345;-70
2020/12/20 02:54:55;;;;;;;29.85;9.98;;;;;;;16.67;57.33;155502.28;1773967;80;21367;-67
2020/12/20 02:57:42;;;;;;;32.10;10.72;;;;;;;16.73;57.24;155518.13;1784503;79;21339;-64
2020/12/20 03:00:25;;;;;;;33.53;10.90;;;;;;;16.60;57.46;155485.20;1769965;80;21352;-64
2020/12/20 03:03:00;;;;;;;36.05;10.90;;;;;;;16.62;57.43;155490.44;1777522;80;21300;-65
2020/12/20 03:05:33;;;;;;;32.60;10.58;;;;;;;16.80;57.19;155536.56;1775764;80;21356;-65
2020/12/20 03:08:07;;;;;;;31.23;10.08;;;;;;;16.81;56.98;155540.55;1773792;80;22610;-67
2020/12/20 03:10:42;;;;;;;33.88;10.38;;;;;;;16.88;56.92;155557.69;1774537;79;21805;-67
2020/12/20 03:13:17;;;;;;;33.00;10.85;;;;;;;16.84;57.08;155548.42;1773815;80;21316;-65
2020/12/20 03:15:51;;;;;;;30.62;9.88;;;;;;;16.77;57.10;155528.69;1773677;80;21159;-65
2020/12/20 03:18:26;;;;;;;25.15;9.60;;;;;;;16.56;57.59;155473.30;1773828;80;21317;-65
2020/12/20 03:21:01;;;;;;;33.78;11.12;;;;;;;16.58;57.62;155479.92;1779726;79;21784;-65
2020/12/20 03:23:43;;;;;;;36.10;10.90;;;;;;;16.61;57.53;155487.78;1774733;80;21658;-68
2020/12/20 03:26:20;;;;;;;35.48;11.63;;;;;;;16.77;57.27;155528.69;1781522;79;21149;-66
2020/12/20 03:28:55;;;;;;;29.15;10.93;;;;;;;16.88;57.09;155557.69;1785906;80;21657;-67
2020/12/20 03:31:29;;;;;;;26.93;11.20;;;;;;;16.91;57.06;155565.56;1787461;80;21160;-65
2020/12/20 03:34:20;;;;;;;31.33;12.37;;;;;;;16.94;57.03;155573.48;1794856;80;21307;-65
2020/12/20 03:37:04;;;;;;;42.35;13.83;;;;;;;16.80;57.28;155536.56;1792860;80;21172;-65
2020/12/20 03:39:37;;;;;;;42.98;14.85;;;;;;;16.70;57.36;155510.22;1790605;78;21851;-65
2020/12/20 03:42:10;;;;;;;36.30;12.50;;;;;;;16.65;57.26;155498.34;1790702;80;21170;-65
2020/12/20 03:44:43;;;;;;;33.38;13.43;;;;;;;16.53;57.45;155466.72;1790627;80;21166;-65
2020/12/20 03:47:16;;;;;;;35.70;11.70;;;;;;;16.51;57.49;155460.16;1790752;80;21244;-65
2020/12/20 03:49:50;;;;;;;30.23;10.72;;;;;;;16.40;57.64;155432.45;1790467;78;21697;-65
2020/12/20 03:52:25;;;;;;;33.30;12.37;;;;;;;16.67;57.39;155503.63;1790563;79;21166;-67
2020/12/20 03:55:07;;;;;;;34.92;13.48;;;;;;;16.53;57.63;155465.42;1788332;79;21182;-65
2020/12/20 03:57:40;;;;;;;37.55;12.50;;;;;;;16.80;57.46;155537.91;1786471;80;21160;-65
2020/12/20 04:00:13;;;;;;;36.98;12.65;;;;;;;16.73;57.18;155519.42;1799781;79;21246;-65
2020/12/20 04:02:45;;;;;;;29.82;11.88;;;;;;;16.56;57.54;155474.64;1801370;79;21155;-66
2020/12/20 04:05:19;;;;;;;36.50;12.53;;;;;;;16.86;57.15;155552.41;1790996;80;21177;-65
2020/12/20 04:07:53;;;;;;;33.15;12.60;;;;;;;16.93;57.06;155572.19;1789755;80;21788;-68
2020/12/20 04:10:27;;;;;;;36.40;13.18;;;;;;;16.71;57.32;155514.19;1771776;78;21157;-66
2020/12/20 04:12:59;;;;;;;41.08;14.43;;;;;;;16.91;56.98;155565.56;1792369;80;21304;-69
2020/12/20 04:15:36;;;;;;;42.62;14.75;;;;;;;16.91;56.96;155565.56;1787023;78;21242;-66
2020/12/20 04:18:10;;;;;;;48.08;17.48;;;;;;;16.94;56.85;155574.83;1783603;80;21299;-65
2020/12/20 04:20:45;;;;;;;37.45;17.10;;;;;;;16.92;56.97;155569.55;1789790;79;21664;-66
2020/12/20 04:23:18;;;;;;;39.58;14.45;;;;;;;16.88;56.95;155558.98;1761778;79;21234;-65
2020/12/20 04:25:52;;;;;;;31.65;11.75;;;;;;;16.95;56.79;155576.13;1791125;79;21321;-66
2020/12/20 04:28:36;;;;;;;31.50;10.50;;;;;;;16.74;57.03;155522.06;1774688;80;21166;-65
2020/12/20 04:31:11;;;;;;;31.35;10.18;;;;;;;16.67;57.26;155502.28;1787015;80;21190;-67
2020/12/20 04:33:46;;;;;;;22.95;8.50;;;;;;;16.57;57.34;155475.94;1791554;78;21366;-66
2020/12/20 04:36:21;;;;;;;26.02;8.30;;;;;;;16.62;57.30;155489.14;1790995;80;21166;-65
2020/12/20 04:38:55;;;;;;;25.05;9.13;;;;;;;16.51;57.62;155461.44;1762525;80;21385;-66
2020/12/20 04:41:29;;;;;;;21.87;9.10;;;;;;;16.42;57.61;155437.73;1775646;79;21300;-65
2020/12/20 04:44:03;;;;;;;19.85;7.28;;;;;;;16.08;58.07;155346.81;1799991;79;21630;-65
2020/12/20 04:46:36;;;;;;;22.45;7.30;;;;;;;16.16;57.92;155367.88;1793569;79;21190;-68
2020/12/20 04:49:14;;;;;;;16.65;6.40;;;;;;;16.18;57.85;155373.14;1783198;79;21150;-67
2020/12/20 04:51:50;;;;;;;15.93;6.72;;;;;;;16.11;57.93;155353.38;1783841;79;21209;-68
2020/12/20 04:54:22;;;;;;;20.88;7.17;;;;;;;15.96;58.15;155313.84;1784614;79;21685;-66
2020/12/20 04:56:57;;;;;;;20.48;7.78;;;;;;;15.90;58.28;155299.36;1796291;79;21771;-67
2020/12/20 04:59:31;;;;;;;17.45;7.15;;;;;;;15.86;58.45;155288.81;1778508;79;21201;-66
2020/12/20 05:02:04;;;;;;;13.93;6.95;;;;;;;15.89;58.47;155296.72;1796507;79;21369;-67
2020/12/20 05:04:37;;;;;;;16.30;6.47;;;;;;;15.84;58.65;155282.23;1794583;79;21185;-66
2020/12/20 05:07:11;;;;;;;15.95;6.10;;;;;;;15.79;58.72;155270.39;1803668;79;21163;-67
2020/12/20 05:09:49;;;;;;;17.25;7.20;;;;;;;15.75;58.81;155259.83;1799363;79;21325;-66
2020/12/20 05:12:34;;;;;;;18.70;7.10;;;;;;;15.82;58.91;155276.95;1802625;79;21316;-66
2020/12/20 05:15:27;;;;;;;19.40;6.97;;;;;;;15.62;59.32;155224.30;1781076;79;21230;-66
2020/12/20 05:18:18;;;;;;;18.00;7.20;;;;;;;15.72;59.28;155250.63;1773814;80;21162;-65
2020/12/20 05:20:52;;;;;;;17.15;6.72;;;;;;;15.72;60.46;155250.63;1766053;81;21182;-66
2020/12/20 05:23:30;;;;;;;21.23;6.85;;;;;;;15.60;60.07;155219.03;1767056;80;21245;-71
2020/12/20 05:26:07;;;;;;;18.48;7.15;;;;;;;15.72;60.00;155250.63;1733079;82;21320;-66
2020/12/20 05:28:42;;;;;;;20.77;6.92;;;;;;;15.74;60.56;155255.91;1750927;81;21278;-66
2020/12/20 05:31:14;;;;;;;15.95;6.30;;;;;;;15.76;60.33;155262.47;1800046;79;21789;-66
2020/12/20 05:33:49;;;;;;;20.00;7.45;;;;;;;15.82;60.63;155276.95;1805370;79;21245;-66
2020/12/20 05:36:28;;;;;;;25.12;7.92;;;;;;;15.82;60.66;155278.31;1777241;79;21360;-66
2020/12/20 05:39:16;;;;;;;24.18;8.78;;;;;;;15.85;61.55;155286.22;1789609;79;21288;-67
2020/12/20 05:41:51;;;;;;;24.25;8.35;;;;;;;15.90;61.78;155298.06;1788142;79;21166;-67
2020/12/20 05:44:24;;;;;;;24.82;8.38;;;;;;;15.89;62.63;155296.72;1784014;79;21312;-67
2020/12/20 05:47:01;;;;;;;24.55;8.90;;;;;;;15.73;62.64;155254.61;1780756;78;21320;-67
2020/12/20 05:49:37;;;;;;;26.33;9.03;;;;;;;15.68;62.80;155240.13;1779804;79;21364;-68
2020/12/20 05:52:12;;;;;;;19.27;8.55;;;;;;;15.72;62.08;155251.97;1731257;79;21285;-68
2020/12/20 05:54:46;;;;;;;21.60;7.50;;;;;;;15.61;62.38;155223.00;1784317;79;21166;-67
2020/12/20 05:57:21;;;;;;;19.70;7.33;;;;;;;15.69;62.87;155244.06;1784399;79;21776;-69
2020/12/20 05:59:54;;;;;;;18.67;6.87;;;;;;;15.71;62.59;155249.33;1704455;84;21245;-66
2020/12/20 06:02:27;;;;;;;23.27;7.72;;;;;;;15.77;62.70;155263.81;1718221;82;21258;-66
2020/12/20 06:05:03;;;;;;;18.98;7.80;;;;;;;15.77;62.53;155263.81;1693165;84;21185;-68
2020/12/20 06:07:37;;;;;;;26.23;9.75;;;;;;;15.81;63.17;155274.31;1732479;82;21369;-67
2020/12/20 06:10:09;;;;;;;24.35;9.93;;;;;;;15.89;63.20;155296.72;1802749;79;21769;-66
2020/12/20 06:12:44;;;;;;;21.35;9.30;;;;;;;15.98;62.96;155320.41;1789544;79;21171;-67
2020/12/20 06:15:19;;;;;;;25.17;8.75;;;;;;;16.10;62.77;155352.03;1755418;79;21293;-66
2020/12/20 06:17:56;;;;;;;22.25;8.98;;;;;;;16.21;62.81;155379.72;1794730;79;21372;-71
2020/12/20 06:20:32;;;;;;;21.85;9.13;;;;;;;16.29;62.77;155403.42;1789241;79;21340;-67
2020/12/20 06:23:05;;;;;;;22.32;8.50;;;;;;;16.31;62.57;155407.45;1804642;79;21828;-66
2020/12/20 06:25:37;;;;;;;22.90;9.30;;;;;;;16.15;63.60;155365.22;1801973;79;21166;-68
2020/12/20 06:28:09;;;;;;;24.10;9.45;;;;;;;16.19;63.12;155374.44;1796454;79;21375;-68
2020/12/20 06:30:42;;;;;;;28.95;11.00;;;;;;;16.24;62.97;155387.62;1790460;79;21776;-70
2020/12/20 06:33:22;;;;;;;33.13;13.98;;;;;;;16.31;63.28;155407.45;1785452;80;21178;-70
2020/12/20 06:35:55;;;;;;;49.88;17.20;;;;;;;16.46;62.58;155446.95;1785928;79;21258;-70
2020/12/20 06:38:28;;;;;;;42.08;16.40;;;;;;;16.50;62.48;155457.50;1785275;79;21396;-69
2020/12/20 06:41:00;;;;;;;44.95;14.40;;;;;;;16.56;62.03;155474.64;1771806;79;21391;-69
2020/12/20 06:43:37;;;;;;;40.85;15.58;;;;;;;16.56;61.87;155474.64;1793978;80;21312;-69
2020/12/20 06:46:10;;;;;;;37.30;12.28;;;;;;;16.62;61.94;155489.14;1792732;80;21324;-69
2020/12/20 06:48:42;;;;;;;32.42;12.25;;;;;;;16.69;61.22;155507.56;1795070;80;21217;-69
2020/12/20 06:51:20;;;;;;;34.53;12.23;;;;;;;16.64;61.21;155495.72;1795045;80;21704;-69
2020/12/20 06:53:53;;;;;;;24.40;10.38;;;;;;;16.67;61.03;155503.63;1791452;80;21839;-69
2020/12/20 06:56:26;;;;;;;27.02;10.35;;;;;;;16.68;61.19;155506.28;1782379;80;21669;-69
2020/12/20 06:58:59;;;;;;;22.67;8.00;;;;;;;16.72;61.07;155515.48;1794626;80;21984;-70
2020/12/20 07:01:41;;;;;;;21.12;7.83;;;;;;;16.75;60.84;155523.41;1775109;80;21218;-70
2020/12/20 07:04:16;;;;;;;22.75;8.48;;;;;;;16.78;60.70;155532.62;1790643;80;21301;-69
2020/12/20 07:07:12;;;;;;;27.37;11.00;;;;;;;16.86;60.36;155552.41;1786472;79;21335;-69
2020/12/20 07:09:45;;;;;;;31.20;12.50;;;;;;;16.79;60.22;155535.27;1784767;80;21297;-67
2020/12/20 07:12:33;;;;;;;34.05;11.97;;;;;;;16.57;60.57;155477.28;1793441;78;21307;-68
2020/12/20 07:15:06;;;;;;;28.55;11.10;;;;;;;16.62;60.54;155490.44;1793759;80;21352;-67
2020/12/20 07:17:43;;;;;;;29.05;11.22;;;;;;;16.56;60.48;155473.30;1767844;80;21309;-67
2020/12/20 07:20:16;;;;;;;27.02;12.28;;;;;;;16.53;60.26;155466.72;1794246;80;21253;-69
2020/12/20 07:22:48;;;;;;;32.23;12.43;;;;;;;16.48;60.24;155453.56;1792319;80;21352;-68
2020/12/20 07:25:20;;;;;;;29.40;12.23;;;;;;;16.46;60.06;155448.30;1787146;80;21339;-68
2020/12/20 07:27:53;;;;;;;27.07;10.43;;;;;;;16.48;60.03;155452.23;1793039;80;21211;-69
2020/12/20 07:30:28;;;;;;;29.70;13.70;;;;;;;16.32;60.02;155410.05;1792770;80;21210;-68
2020/12/20 07:33:01;;;;;;;30.95;14.80;;;;;;;16.33;59.87;155414.03;1782579;80;21836;-68
2020/12/20 07:35:35;;;;;;;25.35;12.82;;;;;;;16.32;59.82;155411.39;1788023;78;21775;-68
2020/12/20 07:38:09;;;;;;;28.12;14.28;;;;;;;16.39;59.65;155429.81;1768954;79;21303;-67
2020/12/20 07:40:42;;;;;;;26.33;13.25;;;;;;;16.41;59.50;155435.09;1789919;80;21285;-69
2020/12/20 07:43:14;;;;;;;24.72;12.68;;;;;;;16.37;59.41;155423.25;1736648;82;21214;-68
2020/12/20 07:46:04;;;;;;;29.32;12.78;;;;;;;16.32;59.62;155411.39;1686567;83;21683;-69
2020/12/20 07:48:37;;;;;;;25.65;12.40;;;;;;;16.52;59.10;155462.78;1737832;82;21344;-67
2020/12/20 07:51:16;;;;;;;27.42;11.88;;;;;;;16.59;58.79;155482.56;1788621;80;21422;-68
2020/12/20 07:53:51;;;;;;;24.77;8.90;;;;;;;16.64;58.61;155494.42;1795209;80;21210;-69
2020/12/20 07:56:32;;;;;;;29.57;14.25;;;;;;;16.45;58.89;155445.66;1782493;79;21411;-68
2020/12/20 07:59:13;;;;;;;26.52;12.93;;;;;;;16.25;58.84;155391.56;1789457;79;21214;-69
2020/12/20 08:01:47;;;;;;;26.77;13.65;;;;;;;16.14;58.85;155362.59;1792983;80;21340;-68
2020/12/20 08:04:22;;;;;;;25.12;11.63;;;;;;;15.87;59.03;155291.44;1793452;79;21208;-69
2020/12/20 08:06:55;;;;;;;38.55;16.40;;;;;;;15.99;58.94;155321.77;1791321;80;21428;-68
2020/12/20 08:09:28;;;;;;;47.48;20.97;;;;;;;16.01;59.04;155328.33;1794629;80;21377;-68
2020/12/20 08:12:01;;;;;;;27.22;13.08;;;;;;;16.29;58.61;155403.42;1794763;79;21340;-68
2020/12/20 08:14:33;;;;;;;34.23;17.12;;;;;;;16.31;58.29;155407.45;1792952;80;21310;-68
2020/12/20 08:17:06;;;;;;;34.08;16.70;;;;;;;16.43;58.24;155440.38;1790451;79;21174;-68
2020/12/20 08:19:39;;;;;;;29.30;13.85;;;;;;;16.47;58.37;155450.94;1795074;80;21364;-67
2020/12/20 08:22:17;;;;;;;32.30;15.98;;;;;;;16.27;58.75;155398.14;1796957;79;21186;-68
2020/12/20 08:24:50;;;;;;;30.72;15.03;;;;;;;16.30;58.85;155404.81;1782455;80;21170;-68
2020/12/20 08:27:32;;;;;;;32.83;17.02;;;;;;;16.40;58.91;155432.45;1792857;78;21336;-67
2020/12/20 08:30:07;;;;;;;34.90;16.10;;;;;;;16.54;58.76;155469.36;1782543;80;21305;-66
2020/12/20 08:32:43;;;;;;;27.75;12.82;;;;;;;16.65;58.80;155497.06;1793505;80;21297;-68
2020/12/20 08:35:26;;;;;;;26.40;12.70;;;;;;;16.88;58.53;155558.98;1794968;78;21213;-65
2020/12/20 08:37:59;;;;;;;46.68;26.60;;;;;;;17.10;58.06;155615.69;1790712;80;21336;-67
2020/12/20 08:40:34;;;;;;;37.70;19.95;;;;;;;17.09;57.81;155614.34;1792557;79;21182;-68
2020/12/20 08:43:08;;;;;;;48.48;26.70;;;;;;;17.13;57.78;155624.91;1782155;79;21702;-68
2020/12/20 08:45:45;;;;;;;43.98;25.35;;;;;;;17.09;57.39;155614.34;1764350;79;21148;-67
2020/12/20 08:48:20;;;;;;;33.42;17.55;;;;;;;17.04;57.45;155601.19;1803074;79;21780;-68
2020/12/20 08:50:56;;;;;;;29.82;15.28;;;;;;;17.11;57.33;155618.33;1758659;79;21205;-67
2020/12/20 08:53:28;;;;;;;52.25;28.05;;;;;;;17.10;57.34;155616.98;1803368;79;21678;-67
2020/12/20 08:56:10;;;;;;;34.33;17.52;;;;;;;17.07;57.45;155607.77;1802994;79;21297;-66
2020/12/20 08:58:49;;;;;;;34.08;16.42;;;;;;;17.15;57.22;155630.19;1798684;79;21214;-66
2020/12/20 09:01:22;;;;;;;26.73;14.25;;;;;;;17.22;57.23;155648.62;1794389;79;21360;-66
2020/12/20 09:03:55;;;;;;;27.48;14.73;;;;;;;17.30;56.98;155671.11;1799679;79;21405;-68
2020/12/20 09:06:29;;;;;;;28.55;13.95;;;;;;;17.19;56.83;155642.06;1802562;79;21222;-70
2020/12/20 09:09:02;;;;;;;25.08;13.00;;;;;;;17.39;56.42;155694.84;1803351;78;21228;-68
2020/12/20 09:11:35;;;;;;;29.50;14.93;;;;;;;17.38;56.38;155690.91;1800436;79;21134;-68
2020/12/20 09:14:11;;;;;;;29.80;13.05;;;;;;;17.42;56.34;155702.77;1794439;79;21312;-67
2020/12/20 09:16:44;;;;;;;28.27;13.43;;;;;;;17.47;56.34;155714.63;1790184;79;21332;-68
2020/12/20 09:19:17;;;;;;;30.65;12.95;;;;;;;17.46;56.18;155711.98;1797734;79;21327;-68
2020/12/20 09:21:50;;;;;;;28.12;13.10;;;;;;;17.15;56.31;155630.19;1797763;78;21348;-67
2020/12/20 09:24:25;;;;;;;33.00;14.50;;;;;;;17.18;56.48;155636.77;1793225;78;21331;-67
2020/12/20 09:27:00;;;;;;;61.02;28.60;;;;;;;17.11;56.40;155619.63;1793279;79;21371;-67
2020/12/20 09:29:32;;;;;;;46.15;21.73;;;;;;;17.11;56.48;155619.63;1797780;79;21249;-69
2020/12/20 09:32:10;;;;;;;42.48;21.65;;;;;;;17.09;56.60;155613.05;1796714;79;21339;-66
2020/12/20 09:34:43;;;;;;;27.02;13.18;;;;;;;17.01;56.27;155593.27;1796922;79;21373;-68
2020/12/20 09:37:15;;;;;;;44.80;21.97;;;;;;;16.80;56.17;155536.56;1798137;79;21257;-67
2020/12/20 09:39:58;;;;;;;32.03;16.67;;;;;;;16.65;56.52;155497.06;1797705;78;21169;-74
2020/12/20 09:42:40;;;;;;;32.83;14.58;;;;;;;16.42;56.84;155436.44;1788559;79;21333;-66
2020/12/20 09:45:14;;;;;;;26.27;12.05;;;;;;;16.46;56.78;155446.95;1780721;79;21379;-69
2020/12/20 09:47:52;;;;;;;36.15;18.85;;;;;;;16.53;56.60;155466.72;1778772;80;21295;-67
2020/12/20 09:50:28;;;;;;;70.30;32.73;;;;;;;16.51;56.73;155460.16;1794387;80;21293;-68
2020/12/20 09:53:01;;;;;;;49.83;25.30;;;;;;;16.57;56.62;155475.94;1789519;80;21697;-67
2020/12/20 09:55:34;;;;;;;42.80;21.42;;;;;;;16.51;56.72;155461.44;1781758;80;21306;-67
2020/12/20 09:58:06;;;;;;;36.60;17.10;;;;;;;16.51;56.71;155461.44;1795890;78;21186;-69
2020/12/20 10:00:39;;;;;;;29.77;14.80;;;;;;;16.56;56.52;155473.30;1790832;79;21182;-67
2020/12/20 10:03:12;;;;;;;35.78;15.88;;;;;;;16.49;56.59;155456.16;1795046;80;21211;-71
2020/12/20 10:05:46;;;;;;;32.85;14.33;;;;;;;16.48;56.61;155452.23;1794827;80;21686;-69
2020/12/20 10:08:20;;;;;;;31.33;15.90;;;;;;;16.38;56.79;155425.87;1791661;80;21375;-68
2020/12/20 10:10:56;;;;;;;33.95;17.00;;;;;;;16.36;56.72;155420.59;1793819;80;21392;-74
2020/12/20 10:13:29;;;;;;;35.83;17.90;;;;;;;16.42;56.88;155437.73;1794989;80;21357;-69
2020/12/20 10:16:03;;;;;;;44.23;22.20;;;;;;;16.53;56.72;155465.42;1793724;80;21822;-67
2020/12/20 10:18:37;;;;;;;39.40;19.48;;;;;;;16.55;56.55;155470.72;1794730;80;21132;-71
2020/12/20 10:21:15;;;;;;;37.60;16.17;;;;;;;16.45;56.51;155444.31;1794909;79;21666;-69
2020/12/20 10:23:49;;;;;;;29.92;13.48;;;;;;;16.43;56.51;155439.08;1744380;81;21211;-68
2020/12/20 10:26:21;;;;;;;29.50;14.93;;;;;;;16.38;56.68;155425.87;1763544;80;21316;-70
2020/12/20 10:28:54;;;;;;;28.50;13.45;;;;;;;16.49;56.65;155454.88;1788676;80;21714;-70
2020/12/20 10:31:26;;;;;;;22.48;11.40;;;;;;;16.57;56.74;155477.28;1794976;80;21179;-70
2020/12/20 10:33:59;;;;;;;27.37;11.75;;;;;;;16.45;56.85;155445.66;1790912;79;21265;-67
2020/12/20 10:36:32;;;;;;;26.42;12.53;;;;;;;16.46;56.75;155446.95;1795178;80;21163;-71
2020/12/20 10:39:06;;;;;;;26.23;12.10;;;;;;;16.28;56.91;155400.78;1786044;78;21219;-66
2020/12/20 10:41:41;;;;;;;22.50;11.90;;;;;;;16.48;56.79;155453.56;1779668;80;21170;-68
2020/12/20 10:44:13;;;;;;;27.93;13.20;;;;;;;16.57;56.54;155475.94;1789995;80;21839;-68
2020/12/20 10:46:52;;;;;;;26.17;12.10;;;;;;;16.41;56.63;155435.09;1790386;78;21328;-65
2020/12/20 10:49:24;;;;;;;24.25;12.30;;;;;;;16.32;56.78;155410.05;1793873;79;21371;-70
2020/12/20 10:51:57;;;;;;;24.90;12.18;;;;;;;16.26;56.93;155392.91;1789875;80;21159;-69
2020/12/20 10:54:30;;;;;;;27.58;13.50;;;;;;;16.42;56.82;155436.44;1782730;80;21348;-69
2020/12/20 10:57:03;;;;;;;27.20;12.80;;;;;;;16.39;56.70;155429.81;1789721;80;21212;-68
2020/12/20 10:59:35;;;;;;;26.85;13.35;;;;;;;16.38;56.69;155427.17;1789703;80;21862;-66
2020/12/20 11:02:09;;;;;;;27.35;12.70;;;;;;;16.43;56.65;155439.08;1789792;78;21625;-68
2020/12/20 11:04:43;;;;;;;39.20;15.88;;;;;;;16.35;56.71;155419.31;1789795;80;21363;-71
2020/12/20 11:07:16;;;;;;;35.48;14.65;;;;;;;16.27;57.02;155398.14;1792784;78;21356;-70
2020/12/20 11:09:49;;;;;;;40.63;14.15;;;;;;;16.21;56.97;155379.72;1790016;80;21348;-68
2020/12/20 11:12:22;;;;;;;39.30;16.20;;;;;;;16.17;57.04;155370.50;1788880;80;21210;-71
2020/12/20 11:14:55;;;;;;;36.42;15.28;;;;;;;16.19;57.12;155375.78;1789918;80;21348;-65
2020/12/20 11:17:29;;;;;;;31.93;14.33;;;;;;;16.25;56.97;155391.56;1790223;79;21210;-71
2020/12/20 11:20:01;;;;;;;31.93;14.73;;;;;;;16.17;57.27;155370.50;1789387;80;21873;-66
2020/12/20 11:22:34;;;;;;;30.25;13.98;;;;;;;16.23;57.00;155386.28;1782429;80;21362;-69
2020/12/20 11:25:07;;;;;;;31.93;15.38;;;;;;;16.06;57.03;155341.53;1783716;79;21379;-65
2020/12/20 11:27:39;;;;;;;32.85;15.58;;;;;;;16.12;56.87;155357.31;1774885;80;21711;-67
2020/12/20 11:30:12;;;;;;;29.40;14.05;;;;;;;16.30;56.76;155404.81;1790004;80;21352;-66
2020/12/20 11:32:46;;;;;;;31.95;15.98;;;;;;;16.25;56.49;155390.28;1790132;79;21348;-66
2020/12/20 11:35:18;;;;;;;37.15;15.72;;;;;;;16.24;56.45;155388.94;1788010;80;21189;-67
2020/12/20 11:37:51;;;;;;;33.83;16.82;;;;;;;16.17;56.67;155370.50;1783720;80;21709;-69
2020/12/20 11:40:24;;;;;;;35.30;16.05;;;;;;;16.19;56.96;155375.78;1789731;80;21313;-66
2020/12/20 11:42:57;;;;;;;36.88;17.10;;;;;;;16.23;57.00;155386.28;1789852;80;21218;-66
2020/12/20 11:45:42;;;;;;;34.65;16.12;;;;;;;16.33;57.01;155412.69;1788757;80;21300;-70